sensor_id;sensor_type;location;lat;lon;timestamp;P1;durP1;ratioP1;P2;durP2;ratioP2
10867;SDS011;62667;48.698;8.762;2024-01-30T00:01:29;4.70;;;3.47;;
10867;SDS011;62667;48.698;8.762;2024-01-30T00:03:56;6.07;;;3.57;;
10867;SDS011;62667;48.698;8.762;2024-01-30T00:06:23;3.93;;;2.17;;
10867;SDS011;62667;48.698;8.762;2024-01-30T00:08:52;4.27;;;3.87;;
10867;SDS011;62667;48.698;8.762;2024-01-30T00:11:19;1.60;;;1.50;;
10867;SDS011;62667;48.698;8.762;2024-01-30T00:13:47;4.50;;;2.37;;
10867;SDS011;62667;48.698;8.762;2024-01-30T00:16:19;3.10;;;2.83;;
10867;SDS011;62667;48.698;8.762;2024-01-30T00:18:49;3.73;;;2.83;;
10867;SDS011;62667;48.698;8.762;2024-01-30T00:21:16;4.17;;;3.40;;
10867;SDS011;62667;48.698;8.762;2024-01-30T00:23:44;2.10;;;2.00;;
10867;SDS011;62667;48.698;8.762;2024-01-30T00:26:13;3.23;;;2.47;;
10867;SDS011;62667;48.698;8.762;2024-01-30T00:28:41;2.37;;;2.17;;
10867;SDS011;62667;48.698;8.762;2024-01-30T00:31:08;2.47;;;2.23;;
10867;SDS011;62667;48.698;8.762;2024-01-30T00:33:37;2.43;;;2.13;;
10867;SDS011;62667;48.698;8.762;2024-01-30T00:36:09;1.43;;;1.33;;
10867;SDS011;62667;48.698;8.762;2024-01-30T00:38:38;3.00;;;2.70;;
10867;SDS011;62667;48.698;8.762;2024-01-30T00:41:19;5.00;;;2.57;;
10867;SDS011;62667;48.698;8.762;2024-01-30T00:43:46;2.00;;;1.90;;
10867;SDS011;62667;48.698;8.762;2024-01-30T00:46:13;3.23;;;2.40;;
10867;SDS011;62667;48.698;8.762;2024-01-30T00:48:41;3.00;;;2.63;;
10867;SDS011;62667;48.698;8.762;2024-01-30T00:51:08;7.97;;;2.40;;
10867;SDS011;62667;48.698;8.762;2024-01-30T00:53:36;2.07;;;1.97;;
10867;SDS011;62667;48.698;8.762;2024-01-30T00:56:09;3.23;;;2.93;;
10867;SDS011;62667;48.698;8.762;2024-01-30T00:58:38;2.87;;;2.17;;
10867;SDS011;62667;48.698;8.762;2024-01-30T01:01:05;3.10;;;2.47;;
10867;SDS011;62667;48.698;8.762;2024-01-30T01:03:34;2.33;;;2.13;;
10867;SDS011;62667;48.698;8.762;2024-01-30T01:06:03;2.67;;;2.43;;
10867;SDS011;62667;48.698;8.762;2024-01-30T01:08:30;1.67;;;1.57;;
10867;SDS011;62667;48.698;8.762;2024-01-30T01:10:58;2.87;;;2.67;;
10867;SDS011;62667;48.698;8.762;2024-01-30T01:13:25;1.97;;;1.87;;
10867;SDS011;62667;48.698;8.762;2024-01-30T01:15:54;2.17;;;2.07;;
10867;SDS011;62667;48.698;8.762;2024-01-30T01:18:22;1.87;;;1.77;;
10867;SDS011;62667;48.698;8.762;2024-01-30T01:20:49;1.90;;;1.80;;
10867;SDS011;62667;48.698;8.762;2024-01-30T01:23:16;4.50;;;3.13;;
10867;SDS011;62667;48.698;8.762;2024-01-30T01:25:44;14.63;;;1.73;;
10867;SDS011;62667;48.698;8.762;2024-01-30T01:28:11;1.47;;;1.40;;
10867;SDS011;62667;48.698;8.762;2024-01-30T01:30:39;2.17;;;2.07;;
10867;SDS011;62667;48.698;8.762;2024-01-30T01:33:08;2.50;;;2.30;;
10867;SDS011;62667;48.698;8.762;2024-01-30T01:35:38;2.27;;;1.83;;
10867;SDS011;62667;48.698;8.762;2024-01-30T01:38:05;2.23;;;2.03;;
10867;SDS011;62667;48.698;8.762;2024-01-30T01:40:33;2.10;;;1.97;;
10867;SDS011;62667;48.698;8.762;2024-01-30T01:43:02;2.83;;;2.40;;
10867;SDS011;62667;48.698;8.762;2024-01-30T01:45:30;3.80;;;2.03;;
10867;SDS011;62667;48.698;8.762;2024-01-30T01:47:58;2.40;;;2.20;;
10867;SDS011;62667;48.698;8.762;2024-01-30T01:50:26;1.90;;;1.73;;
10867;SDS011;62667;48.698;8.762;2024-01-30T01:52:54;7.33;;;2.83;;
10867;SDS011;62667;48.698;8.762;2024-01-30T01:55:21;2.87;;;2.67;;
10867;SDS011;62667;48.698;8.762;2024-01-30T01:57:50;2.10;;;1.90;;
10867;SDS011;62667;48.698;8.762;2024-01-30T02:00:19;3.30;;;3.00;;
10867;SDS011;62667;48.698;8.762;2024-01-30T02:02:47;2.03;;;1.93;;
10867;SDS011;62667;48.698;8.762;2024-01-30T02:05:15;3.53;;;2.43;;
10867;SDS011;62667;48.698;8.762;2024-01-30T02:07:44;2.43;;;2.23;;
10867;SDS011;62667;48.698;8.762;2024-01-30T02:10:13;2.93;;;1.57;;
10867;SDS011;62667;48.698;8.762;2024-01-30T02:12:41;1.27;;;1.23;;
10867;SDS011;62667;48.698;8.762;2024-01-30T02:15:08;1.63;;;1.57;;
10867;SDS011;62667;48.698;8.762;2024-01-30T02:17:39;2.27;;;2.03;;
10867;SDS011;62667;48.698;8.762;2024-01-30T02:20:09;2.90;;;2.70;;
10867;SDS011;62667;48.698;8.762;2024-01-30T02:22:41;3.37;;;2.80;;
10867;SDS011;62667;48.698;8.762;2024-01-30T02:25:09;2.40;;;2.20;;
10867;SDS011;62667;48.698;8.762;2024-01-30T02:27:36;1.40;;;1.40;;
10867;SDS011;62667;48.698;8.762;2024-01-30T02:30:04;3.07;;;2.23;;
10867;SDS011;62667;48.698;8.762;2024-01-30T02:32:32;1.80;;;1.70;;
10867;SDS011;62667;48.698;8.762;2024-01-30T02:35:00;1.20;;;1.13;;
10867;SDS011;62667;48.698;8.762;2024-01-30T02:37:27;3.60;;;2.83;;
10867;SDS011;62667;48.698;8.762;2024-01-30T02:39:57;1.00;;;1.00;;
10867;SDS011;62667;48.698;8.762;2024-01-30T02:42:25;3.50;;;2.30;;
10867;SDS011;62667;48.698;8.762;2024-01-30T02:44:53;1.50;;;1.40;;
10867;SDS011;62667;48.698;8.762;2024-01-30T02:47:20;1.40;;;1.40;;
10867;SDS011;62667;48.698;8.762;2024-01-30T02:49:47;1.30;;;1.30;;
10867;SDS011;62667;48.698;8.762;2024-01-30T02:52:15;1.50;;;1.40;;
10867;SDS011;62667;48.698;8.762;2024-01-30T02:54:42;2.43;;;2.30;;
10867;SDS011;62667;48.698;8.762;2024-01-30T02:57:11;1.43;;;1.43;;
10867;SDS011;62667;48.698;8.762;2024-01-30T02:59:38;2.77;;;2.57;;
10867;SDS011;62667;48.698;8.762;2024-01-30T03:02:08;2.13;;;2.03;;
10867;SDS011;62667;48.698;8.762;2024-01-30T03:04:36;2.07;;;1.97;;
10867;SDS011;62667;48.698;8.762;2024-01-30T03:07:03;2.50;;;2.30;;
10867;SDS011;62667;48.698;8.762;2024-01-30T03:09:31;2.27;;;2.07;;
10867;SDS011;62667;48.698;8.762;2024-01-30T03:11:58;1.60;;;1.50;;
10867;SDS011;62667;48.698;8.762;2024-01-30T03:14:32;1.90;;;1.80;;
10867;SDS011;62667;48.698;8.762;2024-01-30T03:16:59;2.37;;;2.23;;
10867;SDS011;62667;48.698;8.762;2024-01-30T03:19:27;2.20;;;2.10;;
10867;SDS011;62667;48.698;8.762;2024-01-30T03:21:55;5.13;;;2.13;;
10867;SDS011;62667;48.698;8.762;2024-01-30T03:24:22;1.50;;;1.40;;
10867;SDS011;62667;48.698;8.762;2024-01-30T03:26:51;2.07;;;1.97;;
10867;SDS011;62667;48.698;8.762;2024-01-30T03:29:19;1.93;;;1.80;;
10867;SDS011;62667;48.698;8.762;2024-01-30T03:31:48;2.50;;;1.83;;
10867;SDS011;62667;48.698;8.762;2024-01-30T03:34:16;1.90;;;1.73;;
10867;SDS011;62667;48.698;8.762;2024-01-30T03:36:43;3.03;;;1.87;;
10867;SDS011;62667;48.698;8.762;2024-01-30T03:39:10;2.67;;;2.27;;
10867;SDS011;62667;48.698;8.762;2024-01-30T03:41:38;4.13;;;2.70;;
10867;SDS011;62667;48.698;8.762;2024-01-30T03:44:08;1.90;;;1.73;;
10867;SDS011;62667;48.698;8.762;2024-01-30T03:46:35;3.40;;;2.33;;
10867;SDS011;62667;48.698;8.762;2024-01-30T03:49:04;3.07;;;2.17;;
10867;SDS011;62667;48.698;8.762;2024-01-30T03:51:31;2.43;;;2.10;;
10867;SDS011;62667;48.698;8.762;2024-01-30T03:53:58;2.30;;;2.10;;
10867;SDS011;62667;48.698;8.762;2024-01-30T03:56:27;2.33;;;2.13;;
10867;SDS011;62667;48.698;8.762;2024-01-30T03:58:54;2.00;;;1.57;;
10867;SDS011;62667;48.698;8.762;2024-01-30T04:01:22;2.60;;;2.40;;
10867;SDS011;62667;48.698;8.762;2024-01-30T04:03:49;3.70;;;2.70;;
10867;SDS011;62667;48.698;8.762;2024-01-30T04:06:18;2.37;;;2.17;;
10867;SDS011;62667;48.698;8.762;2024-01-30T04:08:45;2.40;;;2.20;;
10867;SDS011;62667;48.698;8.762;2024-01-30T04:11:12;8.40;;;1.77;;
10867;SDS011;62667;48.698;8.762;2024-01-30T04:13:43;2.57;;;2.37;;
10867;SDS011;62667;48.698;8.762;2024-01-30T04:16:18;3.10;;;2.37;;
10867;SDS011;62667;48.698;8.762;2024-01-30T04:18:47;3.43;;;3.00;;
10867;SDS011;62667;48.698;8.762;2024-01-30T04:21:14;4.97;;;2.40;;
10867;SDS011;62667;48.698;8.762;2024-01-30T04:23:43;2.30;;;2.10;;
10867;SDS011;62667;48.698;8.762;2024-01-30T04:26:10;2.07;;;1.97;;
10867;SDS011;62667;48.698;8.762;2024-01-30T04:28:38;6.00;;;1.73;;
10867;SDS011;62667;48.698;8.762;2024-01-30T04:31:07;1.77;;;1.67;;
10867;SDS011;62667;48.698;8.762;2024-01-30T04:33:34;2.63;;;2.43;;
10867;SDS011;62667;48.698;8.762;2024-01-30T04:36:04;3.73;;;1.97;;
10867;SDS011;62667;48.698;8.762;2024-01-30T04:38:36;1.33;;;1.23;;
10867;SDS011;62667;48.698;8.762;2024-01-30T04:41:07;3.67;;;1.90;;
10867;SDS011;62667;48.698;8.762;2024-01-30T04:43:34;1.90;;;1.80;;
10867;SDS011;62667;48.698;8.762;2024-01-30T04:46:02;1.97;;;1.83;;
10867;SDS011;62667;48.698;8.762;2024-01-30T04:48:30;1.87;;;1.53;;
10867;SDS011;62667;48.698;8.762;2024-01-30T04:50:58;2.13;;;1.90;;
10867;SDS011;62667;48.698;8.762;2024-01-30T04:53:28;1.47;;;1.37;;
10867;SDS011;62667;48.698;8.762;2024-01-30T04:55:57;1.93;;;1.83;;
10867;SDS011;62667;48.698;8.762;2024-01-30T04:58:26;1.70;;;1.60;;
10867;SDS011;62667;48.698;8.762;2024-01-30T05:00:54;2.10;;;1.70;;
10867;SDS011;62667;48.698;8.762;2024-01-30T05:03:21;1.87;;;1.67;;
10867;SDS011;62667;48.698;8.762;2024-01-30T05:05:49;1.83;;;1.73;;
10867;SDS011;62667;48.698;8.762;2024-01-30T05:08:16;1.43;;;1.37;;
10867;SDS011;62667;48.698;8.762;2024-01-30T05:10:44;1.37;;;1.27;;
10867;SDS011;62667;48.698;8.762;2024-01-30T05:13:11;2.63;;;2.43;;
10867;SDS011;62667;48.698;8.762;2024-01-30T05:15:40;1.00;;;1.00;;
10867;SDS011;62667;48.698;8.762;2024-01-30T05:18:08;1.63;;;1.53;;
10867;SDS011;62667;48.698;8.762;2024-01-30T05:20:35;2.07;;;1.87;;
10867;SDS011;62667;48.698;8.762;2024-01-30T05:23:02;9.40;;;4.90;;
10867;SDS011;62667;48.698;8.762;2024-01-30T05:25:30;5.10;;;4.50;;
10867;SDS011;62667;48.698;8.762;2024-01-30T05:27:59;4.43;;;3.97;;
10867;SDS011;62667;48.698;8.762;2024-01-30T05:30:27;3.20;;;2.93;;
10867;SDS011;62667;48.698;8.762;2024-01-30T05:32:55;2.57;;;2.37;;
10867;SDS011;62667;48.698;8.762;2024-01-30T05:35:23;2.47;;;2.17;;
10867;SDS011;62667;48.698;8.762;2024-01-30T05:37:50;4.80;;;2.83;;
10867;SDS011;62667;48.698;8.762;2024-01-30T05:40:17;3.07;;;2.77;;
10867;SDS011;62667;48.698;8.762;2024-01-30T05:42:45;2.10;;;1.90;;
10867;SDS011;62667;48.698;8.762;2024-01-30T05:45:12;2.50;;;2.20;;
10867;SDS011;62667;48.698;8.762;2024-01-30T05:47:39;1.30;;;1.20;;
10867;SDS011;62667;48.698;8.762;2024-01-30T05:50:08;2.27;;;2.13;;
10867;SDS011;62667;48.698;8.762;2024-01-30T05:52:36;2.17;;;1.87;;
10867;SDS011;62667;48.698;8.762;2024-01-30T05:55:04;2.40;;;2.30;;
10867;SDS011;62667;48.698;8.762;2024-01-30T05:57:36;4.53;;;2.97;;
10867;SDS011;62667;48.698;8.762;2024-01-30T06:00:03;3.57;;;3.27;;
10867;SDS011;62667;48.698;8.762;2024-01-30T06:02:35;3.90;;;3.27;;
10867;SDS011;62667;48.698;8.762;2024-01-30T06:05:02;2.37;;;2.17;;
10867;SDS011;62667;48.698;8.762;2024-01-30T06:07:31;3.07;;;2.87;;
10867;SDS011;62667;48.698;8.762;2024-01-30T06:10:05;5.87;;;2.67;;
10867;SDS011;62667;48.698;8.762;2024-01-30T06:12:34;2.60;;;2.40;;
10867;SDS011;62667;48.698;8.762;2024-01-30T06:15:01;3.60;;;2.10;;
10867;SDS011;62667;48.698;8.762;2024-01-30T06:17:35;2.17;;;1.93;;
10867;SDS011;62667;48.698;8.762;2024-01-30T06:20:03;3.23;;;2.97;;
10867;SDS011;62667;48.698;8.762;2024-01-30T06:22:36;7.83;;;3.57;;
10867;SDS011;62667;48.698;8.762;2024-01-30T06:25:04;3.43;;;3.13;;
10867;SDS011;62667;48.698;8.762;2024-01-30T06:27:32;4.07;;;3.30;;
10867;SDS011;62667;48.698;8.762;2024-01-30T06:29:59;7.13;;;2.33;;
10867;SDS011;62667;48.698;8.762;2024-01-30T06:32:27;3.37;;;3.10;;
10867;SDS011;62667;48.698;8.762;2024-01-30T06:34:59;2.93;;;2.33;;
10867;SDS011;62667;48.698;8.762;2024-01-30T06:37:27;5.50;;;3.27;;
10867;SDS011;62667;48.698;8.762;2024-01-30T06:39:55;4.03;;;2.17;;
10867;SDS011;62667;48.698;8.762;2024-01-30T06:42:23;2.90;;;2.70;;
10867;SDS011;62667;48.698;8.762;2024-01-30T06:44:50;3.17;;;2.87;;
10867;SDS011;62667;48.698;8.762;2024-01-30T06:47:17;4.20;;;3.40;;
10867;SDS011;62667;48.698;8.762;2024-01-30T06:49:45;1.67;;;1.57;;
10867;SDS011;62667;48.698;8.762;2024-01-30T06:52:13;4.60;;;3.33;;
10867;SDS011;62667;48.698;8.762;2024-01-30T06:54:40;7.93;;;3.70;;
10867;SDS011;62667;48.698;8.762;2024-01-30T06:57:09;5.10;;;3.97;;
10867;SDS011;62667;48.698;8.762;2024-01-30T06:59:37;2.47;;;2.27;;
10867;SDS011;62667;48.698;8.762;2024-01-30T07:02:08;3.23;;;2.93;;
10867;SDS011;62667;48.698;8.762;2024-01-30T07:04:36;2.80;;;2.20;;
10867;SDS011;62667;48.698;8.762;2024-01-30T07:07:10;5.00;;;3.13;;
10867;SDS011;62667;48.698;8.762;2024-01-30T07:09:49;2.47;;;2.07;;
10867;SDS011;62667;48.698;8.762;2024-01-30T07:12:23;2.97;;;2.67;;
10867;SDS011;62667;48.698;8.762;2024-01-30T07:14:51;7.40;;;4.63;;
10867;SDS011;62667;48.698;8.762;2024-01-30T07:17:18;4.17;;;3.77;;
10867;SDS011;62667;48.698;8.762;2024-01-30T07:19:46;2.77;;;2.57;;
10867;SDS011;62667;48.698;8.762;2024-01-30T07:22:13;2.20;;;2.10;;
10867;SDS011;62667;48.698;8.762;2024-01-30T07:24:42;3.23;;;3.00;;
10867;SDS011;62667;48.698;8.762;2024-01-30T07:27:13;2.50;;;2.20;;
10867;SDS011;62667;48.698;8.762;2024-01-30T07:29:44;3.30;;;3.00;;
10867;SDS011;62667;48.698;8.762;2024-01-30T07:32:11;1.63;;;1.53;;
10867;SDS011;62667;48.698;8.762;2024-01-30T07:34:38;4.90;;;4.17;;
10867;SDS011;62667;48.698;8.762;2024-01-30T07:37:06;11.00;;;2.60;;
10867;SDS011;62667;48.698;8.762;2024-01-30T07:39:35;4.20;;;2.13;;
10867;SDS011;62667;48.698;8.762;2024-01-30T07:42:02;4.13;;;3.00;;
10867;SDS011;62667;48.698;8.762;2024-01-30T07:44:30;2.13;;;1.97;;
10867;SDS011;62667;48.698;8.762;2024-01-30T07:46:59;4.47;;;3.20;;
10867;SDS011;62667;48.698;8.762;2024-01-30T07:49:26;8.50;;;1.87;;
10867;SDS011;62667;48.698;8.762;2024-01-30T07:51:54;2.87;;;2.10;;
10867;SDS011;62667;48.698;8.762;2024-01-30T07:54:21;1.70;;;1.60;;
10867;SDS011;62667;48.698;8.762;2024-01-30T07:56:49;1.43;;;1.37;;
10867;SDS011;62667;48.698;8.762;2024-01-30T07:59:16;1.80;;;1.70;;
10867;SDS011;62667;48.698;8.762;2024-01-30T08:01:46;1.60;;;1.50;;
10867;SDS011;62667;48.698;8.762;2024-01-30T08:04:15;2.93;;;1.57;;
10867;SDS011;62667;48.698;8.762;2024-01-30T08:06:43;3.20;;;2.90;;
10867;SDS011;62667;48.698;8.762;2024-01-30T08:09:10;4.00;;;3.43;;
10867;SDS011;62667;48.698;8.762;2024-01-30T08:11:38;5.60;;;4.47;;
10867;SDS011;62667;48.698;8.762;2024-01-30T08:14:05;5.40;;;5.00;;
10867;SDS011;62667;48.698;8.762;2024-01-30T08:16:36;9.77;;;4.47;;
10867;SDS011;62667;48.698;8.762;2024-01-30T08:19:03;3.90;;;3.60;;
10867;SDS011;62667;48.698;8.762;2024-01-30T08:21:32;6.67;;;4.30;;
10867;SDS011;62667;48.698;8.762;2024-01-30T08:24:01;4.30;;;3.90;;
10867;SDS011;62667;48.698;8.762;2024-01-30T08:26:29;8.53;;;4.00;;
10867;SDS011;62667;48.698;8.762;2024-01-30T08:28:57;6.60;;;5.33;;
10867;SDS011;62667;48.698;8.762;2024-01-30T08:31:25;3.67;;;3.37;;
10867;SDS011;62667;48.698;8.762;2024-01-30T08:33:53;3.13;;;2.77;;
10867;SDS011;62667;48.698;8.762;2024-01-30T08:36:20;1.97;;;1.87;;
10867;SDS011;62667;48.698;8.762;2024-01-30T08:38:52;2.60;;;2.40;;
10867;SDS011;62667;48.698;8.762;2024-01-30T08:41:19;1.60;;;1.50;;
10867;SDS011;62667;48.698;8.762;2024-01-30T08:43:47;2.47;;;2.27;;
10867;SDS011;62667;48.698;8.762;2024-01-30T08:46:17;2.00;;;1.90;;
10867;SDS011;62667;48.698;8.762;2024-01-30T08:48:44;2.83;;;2.63;;
10867;SDS011;62667;48.698;8.762;2024-01-30T08:51:12;2.07;;;1.97;;
10867;SDS011;62667;48.698;8.762;2024-01-30T08:53:40;2.10;;;2.00;;
10867;SDS011;62667;48.698;8.762;2024-01-30T08:56:09;2.20;;;2.00;;
10867;SDS011;62667;48.698;8.762;2024-01-30T08:58:37;2.53;;;2.33;;
10867;SDS011;62667;48.698;8.762;2024-01-30T09:01:04;1.53;;;1.43;;
10867;SDS011;62667;48.698;8.762;2024-01-30T09:03:32;5.10;;;3.83;;
10867;SDS011;62667;48.698;8.762;2024-01-30T09:06:00;3.40;;;2.77;;
10867;SDS011;62667;48.698;8.762;2024-01-30T09:08:30;2.00;;;1.80;;
10867;SDS011;62667;48.698;8.762;2024-01-30T09:10:57;1.90;;;1.80;;
10867;SDS011;62667;48.698;8.762;2024-01-30T09:13:26;2.00;;;1.90;;
10867;SDS011;62667;48.698;8.762;2024-01-30T09:15:54;2.27;;;2.10;;
10867;SDS011;62667;48.698;8.762;2024-01-30T09:18:21;2.50;;;2.30;;
10867;SDS011;62667;48.698;8.762;2024-01-30T09:20:49;2.83;;;2.10;;
10867;SDS011;62667;48.698;8.762;2024-01-30T09:23:16;2.87;;;2.60;;
10867;SDS011;62667;48.698;8.762;2024-01-30T09:25:44;2.80;;;2.50;;
10867;SDS011;62667;48.698;8.762;2024-01-30T09:28:12;2.83;;;2.63;;
10867;SDS011;62667;48.698;8.762;2024-01-30T09:30:41;2.57;;;2.37;;
10867;SDS011;62667;48.698;8.762;2024-01-30T09:33:08;2.10;;;1.90;;
10867;SDS011;62667;48.698;8.762;2024-01-30T09:35:36;1.87;;;1.77;;
10867;SDS011;62667;48.698;8.762;2024-01-30T09:38:03;2.03;;;1.93;;
10867;SDS011;62667;48.698;8.762;2024-01-30T09:40:31;2.63;;;2.43;;
10867;SDS011;62667;48.698;8.762;2024-01-30T09:42:59;2.50;;;2.17;;
10867;SDS011;62667;48.698;8.762;2024-01-30T09:45:26;3.43;;;1.93;;
10867;SDS011;62667;48.698;8.762;2024-01-30T09:47:55;2.07;;;1.90;;
10867;SDS011;62667;48.698;8.762;2024-01-30T09:50:25;1.30;;;1.30;;
10867;SDS011;62667;48.698;8.762;2024-01-30T09:52:53;1.03;;;1.03;;
10867;SDS011;62667;48.698;8.762;2024-01-30T09:55:23;1.87;;;1.77;;
10867;SDS011;62667;48.698;8.762;2024-01-30T09:57:51;2.07;;;1.87;;
10867;SDS011;62667;48.698;8.762;2024-01-30T10:00:18;4.40;;;2.47;;
10867;SDS011;62667;48.698;8.762;2024-01-30T10:02:51;3.20;;;2.20;;
10867;SDS011;62667;48.698;8.762;2024-01-30T10:05:20;1.83;;;1.50;;
10867;SDS011;62667;48.698;8.762;2024-01-30T10:07:54;2.33;;;1.80;;
10867;SDS011;62667;48.698;8.762;2024-01-30T10:10:23;1.20;;;1.20;;
10867;SDS011;62667;48.698;8.762;2024-01-30T10:12:51;1.63;;;1.53;;
10867;SDS011;62667;48.698;8.762;2024-01-30T10:15:19;4.20;;;1.57;;
10867;SDS011;62667;48.698;8.762;2024-01-30T10:17:46;1.57;;;1.47;;
10867;SDS011;62667;48.698;8.762;2024-01-30T10:20:13;1.97;;;1.80;;
10867;SDS011;62667;48.698;8.762;2024-01-30T10:22:44;1.27;;;1.20;;
10867;SDS011;62667;48.698;8.762;2024-01-30T10:25:11;3.40;;;2.73;;
10867;SDS011;62667;48.698;8.762;2024-01-30T10:27:41;1.90;;;1.70;;
10867;SDS011;62667;48.698;8.762;2024-01-30T10:30:09;2.03;;;1.80;;
10867;SDS011;62667;48.698;8.762;2024-01-30T10:32:37;1.07;;;1.07;;
10867;SDS011;62667;48.698;8.762;2024-01-30T10:35:04;2.60;;;1.63;;
10867;SDS011;62667;48.698;8.762;2024-01-30T10:37:32;6.93;;;2.37;;
10867;SDS011;62667;48.698;8.762;2024-01-30T10:40:02;1.60;;;1.50;;
10867;SDS011;62667;48.698;8.762;2024-01-30T10:42:31;1.67;;;1.57;;
10867;SDS011;62667;48.698;8.762;2024-01-30T10:45:07;1.30;;;1.20;;
10867;SDS011;62667;48.698;8.762;2024-01-30T10:47:37;1.63;;;1.53;;
10867;SDS011;62667;48.698;8.762;2024-01-30T10:50:07;1.40;;;1.30;;
10867;SDS011;62667;48.698;8.762;2024-01-30T10:52:35;3.70;;;1.60;;
10867;SDS011;62667;48.698;8.762;2024-01-30T10:55:05;1.87;;;1.77;;
10867;SDS011;62667;48.698;8.762;2024-01-30T10:57:34;1.30;;;1.30;;
10867;SDS011;62667;48.698;8.762;2024-01-30T11:00:02;2.10;;;2.00;;
10867;SDS011;62667;48.698;8.762;2024-01-30T11:02:35;1.73;;;1.63;;
10867;SDS011;62667;48.698;8.762;2024-01-30T11:05:04;2.10;;;2.00;;
10867;SDS011;62667;48.698;8.762;2024-01-30T11:07:33;1.60;;;1.50;;
10867;SDS011;62667;48.698;8.762;2024-01-30T11:10:01;1.70;;;1.60;;
10867;SDS011;62667;48.698;8.762;2024-01-30T11:12:31;1.50;;;1.40;;
10867;SDS011;62667;48.698;8.762;2024-01-30T11:15:03;1.83;;;1.40;;
10867;SDS011;62667;48.698;8.762;2024-01-30T11:17:44;1.97;;;1.43;;
10867;SDS011;62667;48.698;8.762;2024-01-30T11:20:17;3.57;;;2.47;;
10867;SDS011;62667;48.698;8.762;2024-01-30T11:22:46;1.57;;;1.47;;
10867;SDS011;62667;48.698;8.762;2024-01-30T11:25:16;2.47;;;2.27;;
10867;SDS011;62667;48.698;8.762;2024-01-30T11:27:46;1.40;;;1.37;;
10867;SDS011;62667;48.698;8.762;2024-01-30T11:30:23;1.57;;;1.47;;
10867;SDS011;62667;48.698;8.762;2024-01-30T11:32:58;1.00;;;1.00;;
10867;SDS011;62667;48.698;8.762;2024-01-30T11:35:26;1.17;;;1.17;;
10867;SDS011;62667;48.698;8.762;2024-01-30T11:37:55;2.20;;;2.00;;
10867;SDS011;62667;48.698;8.762;2024-01-30T11:40:26;3.73;;;1.63;;
10867;SDS011;62667;48.698;8.762;2024-01-30T11:42:57;1.23;;;1.23;;
10867;SDS011;62667;48.698;8.762;2024-01-30T11:45:28;1.90;;;1.80;;
10867;SDS011;62667;48.698;8.762;2024-01-30T11:47:57;1.57;;;1.47;;
10867;SDS011;62667;48.698;8.762;2024-01-30T11:50:26;7.03;;;2.27;;
10867;SDS011;62667;48.698;8.762;2024-01-30T11:52:54;5.13;;;2.53;;
10867;SDS011;62667;48.698;8.762;2024-01-30T11:55:22;1.93;;;1.70;;
10867;SDS011;62667;48.698;8.762;2024-01-30T11:57:50;1.90;;;1.77;;
10867;SDS011;62667;48.698;8.762;2024-01-30T12:00:22;2.03;;;1.83;;
10867;SDS011;62667;48.698;8.762;2024-01-30T12:02:51;6.27;;;3.13;;
10867;SDS011;62667;48.698;8.762;2024-01-30T12:05:21;1.63;;;1.53;;
10867;SDS011;62667;48.698;8.762;2024-01-30T12:07:49;1.57;;;1.47;;
10867;SDS011;62667;48.698;8.762;2024-01-30T12:10:16;2.00;;;1.90;;
10867;SDS011;62667;48.698;8.762;2024-01-30T12:12:45;1.20;;;1.20;;
10867;SDS011;62667;48.698;8.762;2024-01-30T12:15:13;2.20;;;1.93;;
10867;SDS011;62667;48.698;8.762;2024-01-30T12:17:43;2.30;;;1.73;;
10867;SDS011;62667;48.698;8.762;2024-01-30T12:20:11;1.50;;;1.40;;
10867;SDS011;62667;48.698;8.762;2024-01-30T12:22:39;1.70;;;1.60;;
10867;SDS011;62667;48.698;8.762;2024-01-30T12:25:08;1.70;;;1.60;;
10867;SDS011;62667;48.698;8.762;2024-01-30T12:27:35;1.10;;;1.10;;
10867;SDS011;62667;48.698;8.762;2024-01-30T12:30:05;1.40;;;1.30;;
10867;SDS011;62667;48.698;8.762;2024-01-30T12:32:34;1.03;;;0.97;;
10867;SDS011;62667;48.698;8.762;2024-01-30T12:35:03;1.07;;;0.90;;
10867;SDS011;62667;48.698;8.762;2024-01-30T12:37:35;1.83;;;1.73;;
10867;SDS011;62667;48.698;8.762;2024-01-30T12:40:05;1.10;;;1.10;;
10867;SDS011;62667;48.698;8.762;2024-01-30T12:42:38;0.77;;;0.77;;
10867;SDS011;62667;48.698;8.762;2024-01-30T12:45:07;1.07;;;1.07;;
10867;SDS011;62667;48.698;8.762;2024-01-30T12:47:35;0.70;;;0.70;;
10867;SDS011;62667;48.698;8.762;2024-01-30T12:50:04;0.97;;;0.97;;
10867;SDS011;62667;48.698;8.762;2024-01-30T12:52:32;0.80;;;0.80;;
10867;SDS011;62667;48.698;8.762;2024-01-30T12:55:01;0.60;;;0.60;;
10867;SDS011;62667;48.698;8.762;2024-01-30T12:57:30;1.50;;;1.23;;
10867;SDS011;62667;48.698;8.762;2024-01-30T12:59:57;1.80;;;1.03;;
10867;SDS011;62667;48.698;8.762;2024-01-30T13:02:25;0.93;;;0.93;;
10867;SDS011;62667;48.698;8.762;2024-01-30T13:04:59;1.13;;;1.13;;
10867;SDS011;62667;48.698;8.762;2024-01-30T13:07:28;0.80;;;0.80;;
10867;SDS011;62667;48.698;8.762;2024-01-30T13:09:56;0.77;;;0.77;;
10867;SDS011;62667;48.698;8.762;2024-01-30T13:12:27;0.40;;;0.40;;
10867;SDS011;62667;48.698;8.762;2024-01-30T13:14:57;0.60;;;0.60;;
10867;SDS011;62667;48.698;8.762;2024-01-30T13:17:26;1.02;;;1.02;;
10867;SDS011;62667;48.698;8.762;2024-01-30T13:19:53;0.63;;;0.60;;
10867;SDS011;62667;48.698;8.762;2024-01-30T13:22:21;1.25;;;1.15;;
10867;SDS011;62667;48.698;8.762;2024-01-30T13:24:50;2.08;;;1.63;;
10867;SDS011;62667;48.698;8.762;2024-01-30T13:27:18;1.02;;;0.90;;
10867;SDS011;62667;48.698;8.762;2024-01-30T13:29:46;0.68;;;0.68;;
10867;SDS011;62667;48.698;8.762;2024-01-30T13:32:14;0.88;;;0.85;;
10867;SDS011;62667;48.698;8.762;2024-01-30T13:34:41;1.17;;;1.00;;
10867;SDS011;62667;48.698;8.762;2024-01-30T13:37:09;0.80;;;0.80;;
10867;SDS011;62667;48.698;8.762;2024-01-30T13:39:36;1.27;;;1.17;;
10867;SDS011;62667;48.698;8.762;2024-01-30T13:42:05;1.33;;;1.05;;
10867;SDS011;62667;48.698;8.762;2024-01-30T13:44:34;0.75;;;0.75;;
10867;SDS011;62667;48.698;8.762;2024-01-30T13:47:01;0.80;;;0.80;;
10867;SDS011;62667;48.698;8.762;2024-01-30T13:49:29;0.93;;;0.70;;
10867;SDS011;62667;48.698;8.762;2024-01-30T13:51:57;1.20;;;1.10;;
10867;SDS011;62667;48.698;8.762;2024-01-30T13:54:24;1.10;;;1.00;;
10867;SDS011;62667;48.698;8.762;2024-01-30T13:56:52;0.60;;;0.60;;
10867;SDS011;62667;48.698;8.762;2024-01-30T13:59:21;1.00;;;1.00;;
10867;SDS011;62667;48.698;8.762;2024-01-30T14:01:50;0.70;;;0.70;;
10867;SDS011;62667;48.698;8.762;2024-01-30T14:04:18;1.30;;;1.20;;
10867;SDS011;62667;48.698;8.762;2024-01-30T14:06:45;0.73;;;0.73;;
10867;SDS011;62667;48.698;8.762;2024-01-30T14:09:13;1.00;;;0.97;;
10867;SDS011;62667;48.698;8.762;2024-01-30T14:11:41;2.30;;;1.10;;
10867;SDS011;62667;48.698;8.762;2024-01-30T14:14:08;0.70;;;0.70;;
10867;SDS011;62667;48.698;8.762;2024-01-30T14:16:37;0.87;;;0.87;;
10867;SDS011;62667;48.698;8.762;2024-01-30T14:19:05;1.03;;;1.03;;
10867;SDS011;62667;48.698;8.762;2024-01-30T14:21:32;0.73;;;0.70;;
10867;SDS011;62667;48.698;8.762;2024-01-30T14:24:02;1.80;;;1.23;;
10867;SDS011;62667;48.698;8.762;2024-01-30T14:26:30;1.27;;;1.10;;
10867;SDS011;62667;48.698;8.762;2024-01-30T14:28:58;1.03;;;1.00;;
10867;SDS011;62667;48.698;8.762;2024-01-30T14:31:25;0.70;;;0.70;;
10867;SDS011;62667;48.698;8.762;2024-01-30T14:33:54;1.63;;;1.53;;
10867;SDS011;62667;48.698;8.762;2024-01-30T14:36:22;1.23;;;1.23;;
10867;SDS011;62667;48.698;8.762;2024-01-30T14:38:53;1.23;;;1.20;;
10867;SDS011;62667;48.698;8.762;2024-01-30T14:41:20;0.97;;;0.97;;
10867;SDS011;62667;48.698;8.762;2024-01-30T14:43:48;1.30;;;1.27;;
10867;SDS011;62667;48.698;8.762;2024-01-30T14:46:15;0.90;;;0.90;;
10867;SDS011;62667;48.698;8.762;2024-01-30T14:48:43;0.83;;;0.83;;
10867;SDS011;62667;48.698;8.762;2024-01-30T14:51:12;0.90;;;0.90;;
10867;SDS011;62667;48.698;8.762;2024-01-30T14:53:39;0.80;;;0.80;;
10867;SDS011;62667;48.698;8.762;2024-01-30T14:56:07;1.23;;;1.23;;